Weather at Flying T Ranch Airport

Public forecast

Using degrees Fahrenheit for public forecast. Weather courtesy of forecast.io.

Closest aviation weather report (METAR) to Flying T Ranch Airport

Closest report is McKinney National Airport, 14.0 nm (25.9 km) SSW.

2024/07/13 17:53 (retrieved 48 minutes ago)

KTKI 131753Z 21010G18KT 10SM FEW049 33/20 A3016 RMK AO2 SLP205 T03330200 10333 20233 58005

Closest aviation forecast (TAF) to Flying T Ranch Airport

Closest forecast is Durant Regional Airport - Eaker Field, 33.8 nm (62.6 km) N.

2024/07/13 18:22 (retrieved 19 minutes ago)

TAF KDUA 131720Z 1318/1418 19006KT P6SM SCT250